Main page
METAR-TAF:

METAR-TAF

Airports :

Ronneby Airport

Ronneby, Sweden

latitude: 56-16N, longitude: 015-17E, elevation: 58 m

Current weather observation

The report was made 21 minutes ago, at 12:20 UTC
Wind 5 kt from the West, varying between Southwest and West/Northwest
Temperature 3°C
Humidity 93%
Pressure 1004 hPa
Visibility 10 km or more
Few clouds at a height of 1000 ft
Broken clouds at a height of 1500 ft

METAR: ESDF 281220Z 27005KT 230V300 9999 FEW010 BKN015 03/02 Q1004

Time: 13:41 (12:41 UTC)

Forecast

The report was made 49 minutes ago, at 11:52 UTC
Forecast valid from 28 at 12 UTC to 28 at 20 UTC
Wind 5 kt from the South/Southwest
Visibility 10 km or more
Broken clouds at a height of 800 ft
Becoming
from 28 at 12 UTC to 28 at 13 UTC
Broken clouds at a height of 2500 ft
Temporary
from 28 at 12 UTC to 28 at 15 UTC
Visibility: 4000 m
Broken clouds at a height of 1400 ft, Towering cumulus.
rain showers

TAF: ESDF 281152Z 2812/2820 21005KT 9999 BKN008 BECMG 2812/2813 BKN025 TEMPO 2812/2815 4000 SHRA BKN014TCU

Weather observations and forecasts of more than 4000 airports (METAR and TAF reports).

The available stations are represented by yellow and red dots on the map.

Hover mouse over dot to see the name of the station.

Then click to see weather observations and forecasts.

To change the map : click on the green buttons with a black cross to zoom in, on the green button with a dash to zoom out, or on the green arrows for adjacent maps.


METAR-TAF: